Time;durP1;ratioP1;P1;durP2;ratioP2;P2;SDS_P1;SDS_P2;PMS_P1;PMS_P2;Temp;Humidity;BMP_temperature;BMP_pressure;BME280_temperature;BME280_humidity;BME280_pressure;Samples;Min_cycle;Max_cycle;Signal;HPM_P1;HPM_P2
2023/06/22 00:01:06;;;;;;;8.30;4.30;;;19.70;98.40;;;;;;5133971;27;21000;-64
2023/06/22 00:03:33;;;;;;;8.83;5.10;;;19.70;99.30;;;;;;5133701;27;20545;-64
2023/06/22 00:06:01;;;;;;;11.20;6.13;;;19.60;99.90;;;;;;5134666;27;20880;-64
2023/06/22 00:08:28;;;;;;;8.13;5.10;;;19.50;99.90;;;;;;5133710;27;20534;-64
2023/06/22 00:10:55;;;;;;;8.60;5.13;;;19.50;99.90;;;;;;5133723;27;20444;-64
2023/06/22 00:13:22;;;;;;;9.67;5.20;;;19.40;99.90;;;;;;5133858;27;20452;-63
2023/06/22 00:15:49;;;;;;;6.73;4.57;;;19.40;99.90;;;;;;5133529;27;20448;-63
2023/06/22 00:18:16;;;;;;;7.97;5.10;;;19.40;99.90;;;;;;5133606;27;20510;-64
2023/06/22 00:20:45;;;;;;;8.57;4.70;;;19.50;99.90;;;;;;5133171;27;20460;-64
2023/06/22 00:23:15;;;;;;;9.47;5.97;;;19.50;99.90;;;;;;5133608;27;20650;-63
2023/06/22 00:25:43;;;;;;;6.80;4.37;;;19.50;99.90;;;;;;5133150;27;20847;-64
2023/06/22 00:28:10;;;;;;;7.90;5.20;;;19.50;99.90;;;;;;5133081;27;20444;-63
2023/06/22 00:30:37;;;;;;;10.87;5.30;;;19.50;99.90;;;;;;5132657;27;20799;-64
2023/06/22 00:33:07;;;;;;;9.23;5.57;;;19.50;99.90;;;;;;5133689;27;20451;-63
2023/06/22 00:35:34;;;;;;;8.00;5.40;;;19.50;99.90;;;;;;5133045;27;20484;-63
2023/06/22 00:38:03;;;;;;;13.67;5.63;;;19.40;99.90;;;;;;5133514;27;20458;-64
2023/06/22 00:40:33;;;;;;;8.67;5.93;;;19.40;99.90;;;;;;5133153;27;20547;-64
2023/06/22 00:43:00;;;;;;;8.90;5.83;;;19.40;99.90;;;;;;5133129;27;20479;-63
2023/06/22 00:45:27;;;;;;;9.07;5.53;;;19.40;99.90;;;;;;5132917;27;20454;-63
2023/06/22 00:47:57;;;;;;;8.33;6.03;;;19.40;99.90;;;;;;5133196;27;20462;-63
2023/06/22 00:50:33;;;;;;;9.80;7.10;;;19.30;99.90;;;;;;5132831;27;20444;-63
2023/06/22 00:53:07;;;;;;;9.40;7.27;;;19.30;99.90;;;;;;5133222;27;20451;-63
2023/06/22 00:55:38;;;;;;;8.37;6.43;;;19.30;99.90;;;;;;5132691;27;20448;-63
2023/06/22 00:58:10;;;;;;;8.50;6.40;;;19.30;99.90;;;;;;5133415;27;20965;-63
2023/06/22 01:00:36;;;;;;;9.77;7.10;;;19.30;99.90;;;;;;5132204;27;20527;-63
2023/06/22 01:03:08;;;;;;;9.90;6.60;;;19.30;99.90;;;;;;5133034;27;20476;-63
2023/06/22 01:05:36;;;;;;;12.37;6.70;;;19.30;99.90;;;;;;5132870;28;20448;-63
2023/06/22 01:08:15;;;;;;;10.33;6.80;;;19.20;99.90;;;;;;5133130;27;20490;-63
2023/06/22 01:10:47;;;;;;;7.23;6.00;;;19.10;99.90;;;;;;5132654;27;20538;-63
2023/06/22 01:13:26;;;;;;;8.33;5.90;;;19.10;99.90;;;;;;5133005;28;20892;-63
2023/06/22 01:16:01;;;;;;;14.93;6.90;;;19.10;99.90;;;;;;5132531;27;20957;-63
2023/06/22 01:18:31;;;;;;;12.67;7.07;;;19.00;99.90;;;;;;5112381;28;20452;-64
2023/06/22 01:20:58;;;;;;;10.07;6.23;;;19.00;99.90;;;;;;5124413;28;20534;-64
2023/06/22 01:23:37;;;;;;;8.27;6.70;;;19.00;99.90;;;;;;5132710;27;20476;-63
2023/06/22 01:26:15;;;;;;;10.50;6.70;;;19.00;99.90;;;;;;5133195;28;20824;-64
2023/06/22 01:28:49;;;;;;;8.80;6.40;;;18.90;99.90;;;;;;5131955;28;20527;-63
2023/06/22 01:31:19;;;;;;;9.63;6.30;;;18.90;99.90;;;;;;5132763;28;20444;-63
2023/06/22 01:34:05;;;;;;;8.70;6.43;;;18.90;99.90;;;;;;5132534;27;20643;-63
2023/06/22 01:36:33;;;;;;;11.77;6.53;;;18.80;99.90;;;;;;5133141;27;20546;-63
2023/06/22 01:39:00;;;;;;;10.07;6.37;;;18.80;99.90;;;;;;5132715;28;20530;-63
2023/06/22 01:41:30;;;;;;;10.13;6.90;;;18.80;99.90;;;;;;5132813;27;20539;-63
2023/06/22 01:43:59;;;;;;;8.07;5.57;;;18.70;99.90;;;;;;5136399;27;20451;-63
2023/06/22 01:46:26;;;;;;;9.83;6.70;;;18.70;99.90;;;;;;5136809;27;20467;-63
2023/06/22 01:48:54;;;;;;;8.93;6.67;;;18.70;99.90;;;;;;5136139;27;20444;-63
2023/06/22 01:51:21;;;;;;;11.17;7.43;;;18.70;99.90;;;;;;5136409;27;20452;-63
2023/06/22 01:53:48;;;;;;;13.33;6.67;;;18.60;99.90;;;;;;5136399;27;20456;-63
2023/06/22 01:56:18;;;;;;;8.70;7.03;;;18.60;99.90;;;;;;5136807;27;20814;-63
2023/06/22 01:58:50;;;;;;;8.20;6.60;;;18.60;99.90;;;;;;5136365;27;20447;-63
2023/06/22 02:01:28;;;;;;;9.57;7.63;;;18.60;99.90;;;;;;5136063;27;20861;-63
2023/06/22 02:04:04;;;;;;;10.57;9.40;;;18.60;99.90;;;;;;5135576;27;20447;-63
2023/06/22 02:06:36;;;;;;;9.90;8.03;;;18.60;99.90;;;;;;5135963;27;20447;-63
2023/06/22 02:09:09;;;;;;;8.40;6.30;;;18.60;99.90;;;;;;5136392;27;20452;-63
2023/06/22 02:11:37;;;;;;;9.33;6.40;;;18.70;99.90;;;;;;5136035;27;20482;-63
2023/06/22 02:14:07;;;;;;;8.13;7.33;;;18.70;99.90;;;;;;5135423;27;20452;-63
2023/06/22 02:16:37;;;;;;;10.87;9.00;;;18.70;99.90;;;;;;5136256;27;20931;-63
2023/06/22 02:19:06;;;;;;;12.07;10.83;;;18.70;99.90;;;;;;5135940;27;20483;-63
2023/06/22 02:21:33;;;;;;;11.67;10.23;;;18.70;99.90;;;;;;5135786;27;20451;-63
2023/06/22 02:24:00;;;;;;;11.33;10.23;;;18.70;99.90;;;;;;5135625;27;20504;-63
2023/06/22 02:26:28;;;;;;;10.80;7.97;;;18.70;99.90;;;;;;5135996;27;20598;-63
2023/06/22 02:28:55;;;;;;;10.43;7.67;;;18.80;99.90;;;;;;5135965;27;20452;-63
2023/06/22 02:31:22;;;;;;;8.77;6.97;;;18.70;99.90;;;;;;5135792;27;20452;-63
2023/06/22 02:33:50;;;;;;;8.87;7.57;;;18.80;99.90;;;;;;5135447;27;20856;-63
2023/06/22 02:36:21;;;;;;;11.03;8.40;;;18.80;99.90;;;;;;5135931;27;20451;-63
2023/06/22 02:38:48;;;;;;;10.77;9.17;;;18.80;99.90;;;;;;5135728;27;20458;-63
2023/06/22 02:41:18;;;;;;;11.27;10.07;;;18.80;99.90;;;;;;5135362;27;20451;-63
2023/06/22 02:43:46;;;;;;;13.30;9.57;;;18.80;99.90;;;;;;5135345;27;20472;-63
2023/06/22 02:46:13;;;;;;;19.03;11.70;;;18.80;99.90;;;;;;5135518;27;20452;-63
2023/06/22 02:48:40;;;;;;;15.23;12.20;;;18.80;99.90;;;;;;5135150;27;20800;-63
2023/06/22 02:51:08;;;;;;;13.43;12.07;;;18.90;99.90;;;;;;5135265;27;20440;-63
2023/06/22 02:53:35;;;;;;;13.67;10.47;;;18.90;99.90;;;;;;5134115;27;20448;-63
2023/06/22 02:56:05;;;;;;;15.53;10.17;;;18.90;99.90;;;;;;5135430;27;20444;-63
2023/06/22 02:58:38;;;;;;;12.73;9.60;;;19.00;99.90;;;;;;5135065;27;20444;-63
2023/06/22 03:01:05;;;;;;;9.63;7.37;;;19.00;99.90;;;;;;5134915;27;20444;-63
2023/06/22 03:03:32;;;;;;;9.53;7.30;;;19.10;99.90;;;;;;5134793;27;20476;-63
2023/06/22 03:06:00;;;;;;;11.87;7.97;;;19.10;99.90;;;;;;5135200;27;20455;-63
2023/06/22 03:08:29;;;;;;;13.00;8.63;;;19.20;99.90;;;;;;5134882;27;20543;-66
2023/06/22 03:10:56;;;;;;;11.10;8.00;;;19.20;99.90;;;;;;5134664;27;20440;-66
2023/06/22 03:13:23;;;;;;;10.83;8.73;;;19.20;99.90;;;;;;5134747;27;20966;-66
2023/06/22 03:15:50;;;;;;;12.93;8.93;;;19.20;99.90;;;;;;5133787;27;20531;-66
2023/06/22 03:18:17;;;;;;;8.57;6.67;;;19.20;99.90;;;;;;5134281;27;21009;-66
2023/06/22 03:20:44;;;;;;;11.57;7.80;;;19.20;99.90;;;;;;5133742;27;20526;-66
2023/06/22 03:23:11;;;;;;;12.70;9.10;;;19.20;99.90;;;;;;5132524;27;20464;-66
2023/06/22 03:25:39;;;;;;;10.83;9.33;;;19.20;99.90;;;;;;5134568;27;20444;-66
2023/06/22 03:28:06;;;;;;;15.93;14.33;;;19.30;99.90;;;;;;5136420;27;20443;-66
2023/06/22 03:30:33;;;;;;;18.00;16.73;;;19.30;99.90;;;;;;5134682;27;20450;-65
2023/06/22 03:33:00;;;;;;;15.27;13.87;;;19.20;99.90;;;;;;5134660;27;20444;-66
2023/06/22 03:35:27;;;;;;;11.00;9.87;;;19.20;99.90;;;;;;5134001;27;20454;-66
2023/06/22 03:37:54;;;;;;;17.50;11.07;;;19.20;99.90;;;;;;5134376;27;20459;-66
2023/06/22 03:40:21;;;;;;;12.43;10.83;;;19.20;99.90;;;;;;5134399;27;20456;-66
2023/06/22 03:42:50;;;;;;;12.47;11.17;;;19.30;99.90;;;;;;5135706;27;20472;-66
2023/06/22 03:45:17;;;;;;;12.10;9.57;;;19.30;99.90;;;;;;5134075;27;20539;-66
2023/06/22 03:47:44;;;;;;;13.53;11.13;;;19.40;99.90;;;;;;5133994;27;20455;-66
2023/06/22 03:50:11;;;;;;;15.13;13.07;;;19.50;99.90;;;;;;5134312;27;20448;-66
2023/06/22 03:52:38;;;;;;;21.87;20.10;;;19.50;99.90;;;;;;5134518;27;20450;-66
2023/06/22 03:55:06;;;;;;;31.03;29.00;;;19.50;99.90;;;;;;5133906;27;20451;-66
2023/06/22 03:57:33;;;;;;;38.50;36.37;;;19.50;99.90;;;;;;5134247;27;20455;-66
2023/06/22 04:00:02;;;;;;;41.07;38.97;;;19.50;99.90;;;;;;5134083;27;20538;-66
2023/06/22 04:02:29;;;;;;;39.13;36.80;;;19.50;99.90;;;;;;5133754;27;20460;-66
2023/06/22 04:04:56;;;;;;;41.10;38.70;;;19.50;99.90;;;;;;5132731;27;20543;-66
2023/06/22 04:07:23;;;;;;;52.13;49.57;;;19.50;99.90;;;;;;5134080;27;20539;-66
2023/06/22 04:09:50;;;;;;;66.60;63.70;;;19.50;99.90;;;;;;5132705;27;20536;-66
2023/06/22 04:12:17;;;;;;;82.27;78.77;;;19.40;99.90;;;;;;5133832;27;20456;-66
2023/06/22 04:14:44;;;;;;;18.37;16.87;;;19.40;99.90;;;;;;5122691;27;20452;-66
2023/06/22 04:17:14;;;;;;;17.93;14.67;;;19.40;99.90;;;;;;5133844;27;20500;-66
2023/06/22 04:19:41;;;;;;;15.20;12.53;;;19.50;99.90;;;;;;5133558;27;20823;-66
2023/06/22 04:22:08;;;;;;;12.63;10.80;;;19.60;99.90;;;;;;5132523;27;20540;-66
2023/06/22 04:24:35;;;;;;;13.30;11.90;;;19.60;99.90;;;;;;5133076;27;20792;-66
2023/06/22 04:27:02;;;;;;;13.87;12.47;;;19.70;99.90;;;;;;5133831;27;20879;-66
2023/06/22 04:29:30;;;;;;;17.53;15.93;;;19.70;99.90;;;;;;5132222;27;20452;-66
2023/06/22 04:31:58;;;;;;;16.47;15.00;;;19.60;99.90;;;;;;5133619;27;20451;-66
2023/06/22 04:34:27;;;;;;;19.80;18.10;;;19.60;99.90;;;;;;5132611;27;20523;-66
2023/06/22 04:36:54;;;;;;;16.63;15.17;;;19.60;99.90;;;;;;5133300;27;20814;-66
2023/06/22 04:39:22;;;;;;;18.70;12.00;;;19.60;99.90;;;;;;5133313;27;20808;-66
2023/06/22 04:41:50;;;;;;;14.27;12.87;;;19.60;99.90;;;;;;5132680;27;20939;-66
2023/06/22 04:44:23;;;;;;;19.60;17.47;;;19.60;99.90;;;;;;5132588;27;20507;-66
2023/06/22 04:46:53;;;;;;;25.80;23.90;;;19.50;99.90;;;;;;5132661;27;20455;-66
2023/06/22 04:49:21;;;;;;;35.53;33.30;;;19.50;99.90;;;;;;5131599;27;20444;-66
2023/06/22 04:51:51;;;;;;;34.97;32.40;;;19.60;99.90;;;;;;5133261;27;20548;-66
2023/06/22 04:54:18;;;;;;;32.57;30.33;;;19.60;99.90;;;;;;5131807;27;20445;-67
2023/06/22 04:56:46;;;;;;;32.37;30.17;;;19.70;99.90;;;;;;5132636;27;20487;-66
2023/06/22 04:59:13;;;;;;;51.07;48.07;;;19.70;99.90;;;;;;5133022;27;20986;-66
2023/06/22 05:01:41;;;;;;;33.80;31.67;;;19.80;99.90;;;;;;5132662;27;20532;-66
2023/06/22 05:04:08;;;;;;;45.97;43.17;;;19.80;99.90;;;;;;5131869;27;20525;-66
2023/06/22 05:06:35;;;;;;;20.43;18.73;;;19.90;99.90;;;;;;5132739;27;20476;-66
2023/06/22 05:09:05;;;;;;;22.97;21.30;;;20.10;99.90;;;;;;5112369;28;20875;-66
2023/06/22 05:11:32;;;;;;;25.53;23.20;;;20.20;99.90;;;;;;5112836;28;20502;-66
2023/06/22 05:13:59;;;;;;;19.87;17.77;;;20.30;99.90;;;;;;5112214;28;20532;-66
2023/06/22 05:16:26;;;;;;;20.33;18.43;;;20.50;99.90;;;;;;5114398;28;20884;-66
2023/06/22 05:18:54;;;;;;;12.70;10.00;;;20.60;99.90;;;;;;5117216;27;20735;-66
2023/06/22 05:21:24;;;;;;;15.53;11.03;;;20.60;99.90;;;;;;5137108;27;20815;-66
2023/06/22 05:23:51;;;;;;;17.53;10.47;;;20.70;99.90;;;;;;5136496;27;20574;-66
2023/06/22 05:26:19;;;;;;;15.03;8.93;;;20.70;99.90;;;;;;5137226;27;20455;-67
2023/06/22 05:28:47;;;;;;;14.83;9.53;;;20.70;99.90;;;;;;5136940;27;20870;-66
2023/06/22 05:31:15;;;;;;;16.33;10.10;;;20.70;99.90;;;;;;5136288;27;20444;-66
2023/06/22 05:33:42;;;;;;;16.57;11.50;;;20.70;99.90;;;;;;5135904;27;20444;-66
2023/06/22 05:36:09;;;;;;;12.57;10.33;;;20.70;99.90;;;;;;5136766;27;20458;-66
2023/06/22 05:38:37;;;;;;;16.13;10.90;;;20.70;99.90;;;;;;5136008;27;20971;-66
2023/06/22 05:41:04;;;;;;;13.00;10.10;;;20.70;99.90;;;;;;5136536;27;20451;-66
2023/06/22 05:43:32;;;;;;;13.80;11.50;;;20.60;99.90;;;;;;5129293;27;20535;-66
2023/06/22 05:45:59;;;;;;;16.03;10.57;;;20.60;99.90;;;;;;5114515;28;20540;-66
2023/06/22 05:48:26;;;;;;;16.43;11.10;;;20.60;99.90;;;;;;5115585;28;20488;-64
2023/06/22 05:50:53;;;;;;;12.50;9.70;;;20.50;99.90;;;;;;5116430;27;20692;-64
2023/06/22 05:53:20;;;;;;;13.17;9.53;;;20.50;99.90;;;;;;5136834;27;20535;-64
2023/06/22 05:55:48;;;;;;;13.43;9.37;;;20.50;99.90;;;;;;5136281;27;20452;-63
2023/06/22 05:58:15;;;;;;;16.77;9.03;;;20.50;99.90;;;;;;5134479;27;20451;-64
2023/06/22 06:00:44;;;;;;;12.70;9.37;;;20.50;99.90;;;;;;5134236;27;20446;-64
2023/06/22 06:03:11;;;;;;;12.50;9.33;;;20.50;99.90;;;;;;5137042;27;20464;-64
2023/06/22 06:05:38;;;;;;;13.93;12.43;;;20.60;99.90;;;;;;5136807;27;20776;-65
2023/06/22 06:08:07;;;;;;;12.37;11.10;;;20.40;99.90;;;;;;5135776;27;20530;-66
2023/06/22 06:10:34;;;;;;;15.70;11.40;;;20.60;99.90;;;;;;5136560;27;20462;-64
2023/06/22 06:13:04;;;;;;;16.47;13.60;;;20.60;99.90;;;;;;5136369;27;20443;-65
2023/06/22 06:15:31;;;;;;;15.00;13.07;;;20.50;99.90;;;;;;5135837;27;20496;-65
2023/06/22 06:17:59;;;;;;;33.77;31.67;;;20.40;99.90;;;;;;5136135;27;20451;-62
2023/06/22 06:20:28;;;;;;;37.73;35.40;;;20.10;99.90;;;;;;5135661;27;20452;-62
2023/06/22 06:22:55;;;;;;;239.85;231.57;;;19.90;99.90;;;;;;5135014;27;20453;-62
2023/06/22 06:25:23;;;;;;;427.50;411.30;;;19.80;99.90;;;;;;5135679;27;20199;-62
2023/06/22 06:27:53;;;;;;;638.87;608.57;;;19.70;99.90;;;;;;5134962;27;20448;-62
2023/06/22 06:30:20;;;;;;;723.13;686.63;;;19.60;99.90;;;;;;5135516;27;20516;-62
2023/06/22 06:32:47;;;;;;;758.17;718.63;;;19.50;99.90;;;;;;5136076;27;20827;-62
2023/06/22 06:35:16;;;;;;;753.20;717.20;;;19.50;99.90;;;;;;5135466;27;20500;-62
2023/06/22 06:37:45;;;;;;;681.37;652.57;;;19.50;99.90;;;;;;5136028;27;20448;-61
2023/06/22 06:40:13;;;;;;;847.80;795.20;;;19.60;99.90;;;;;;5135596;27;20943;-61
2023/06/22 06:42:44;;;;;;;754.43;716.20;;;19.70;99.90;;;;;;5133134;27;20460;-61
2023/06/22 06:45:11;;;;;;;572.60;549.80;;;19.70;99.90;;;;;;5134198;27;20591;-61
2023/06/22 06:47:39;;;;;;;435.33;419.07;;;19.80;99.90;;;;;;5134445;27;20676;-61
2023/06/22 06:50:07;;;;;;;613.80;584.97;;;19.80;99.90;;;;;;5134431;27;20890;-61
2023/06/22 06:52:36;;;;;;;670.97;637.73;;;19.90;99.90;;;;;;5134427;27;20966;-61
2023/06/22 06:55:04;;;;;;;622.17;594.60;;;20.10;99.90;;;;;;5133950;27;20542;-62
2023/06/22 06:57:32;;;;;;;376.80;363.90;;;20.30;99.90;;;;;;5133455;27;20454;-62
2023/06/22 06:59:59;;;;;;;560.97;537.77;;;20.40;99.90;;;;;;5133576;27;20505;-62
2023/06/22 07:02:27;;;;;;;406.10;391.70;;;20.70;99.90;;;;;;5134324;27;20527;-62
2023/06/22 07:04:56;;;;;;;466.13;448.40;;;20.90;99.90;;;;;;5133865;27;20483;-62
2023/06/22 07:07:23;;;;;;;685.73;654.13;;;21.10;99.90;;;;;;5134183;27;20502;-62
2023/06/22 07:09:51;;;;;;;259.13;250.23;;;21.40;99.90;;;;;;5133919;27;20534;-62
2023/06/22 07:12:18;;;;;;;242.17;233.87;;;21.70;99.90;;;;;;5134009;27;21012;-62
2023/06/22 07:14:45;;;;;;;100.73;96.27;;;22.00;99.90;;;;;;5133725;27;20878;-63
2023/06/22 07:17:12;;;;;;;66.50;62.90;;;22.40;99.90;;;;;;5134053;27;20459;-64
2023/06/22 07:19:40;;;;;;;26.03;23.90;;;22.70;99.90;;;;;;5133907;27;20452;-64
2023/06/22 07:22:07;;;;;;;19.10;16.40;;;22.90;99.90;;;;;;5133747;27;20451;-65
2023/06/22 07:24:34;;;;;;;17.60;12.50;;;22.70;99.90;;;;;;5133036;27;20495;-65
2023/06/22 07:27:03;;;;;;;15.03;12.67;;;22.70;99.90;;;;;;5134206;27;20504;-65
2023/06/22 07:29:31;;;;;;;15.47;11.10;;;22.40;99.90;;;;;;5134047;27;20812;-65
2023/06/22 07:32:00;;;;;;;15.47;11.90;;;22.50;99.90;;;;;;5134138;27;20452;-65
2023/06/22 07:34:27;;;;;;;14.90;11.50;;;22.60;99.90;;;;;;5131068;27;20652;-65
2023/06/22 07:36:54;;;;;;;16.23;11.20;;;23.00;99.90;;;;;;5133067;27;20444;-66
2023/06/22 07:39:25;;;;;;;13.53;10.00;;;23.50;99.90;;;;;;5133090;27;20789;-66
2023/06/22 07:41:52;;;;;;;13.83;10.77;;;23.70;99.30;;;;;;5131998;27;20459;-66
2023/06/22 07:44:21;;;;;;;14.87;10.23;;;23.60;98.70;;;;;;5132277;27;20838;-66
2023/06/22 07:46:47;;;;;;;14.10;11.77;;;23.60;99.70;;;;;;5133559;27;20456;-65
2023/06/22 07:49:14;;;;;;;19.00;12.53;;;24.00;99.90;;;;;;5132925;27;21006;-65
2023/06/22 07:51:41;;;;;;;13.97;10.90;;;24.30;99.90;;;;;;5133250;27;20456;-65
2023/06/22 07:54:10;;;;;;;17.03;11.77;;;24.70;99.90;;;;;;5132943;27;20527;-66
2023/06/22 07:56:38;;;;;;;13.53;10.80;;;25.00;98.60;;;;;;5133349;27;20452;-65
2023/06/22 07:59:04;;;;;;;13.70;11.10;;;25.20;99.10;;;;;;5133002;27;20451;-65
2023/06/22 08:01:33;;;;;;;16.97;11.40;;;25.50;97.30;;;;;;5133216;27;20995;-66
2023/06/22 08:04:00;;;;;;;13.47;10.63;;;25.90;97.50;;;;;;5132717;27;20563;-65
2023/06/22 08:06:27;;;;;;;11.87;9.70;;;26.40;96.60;;;;;;5131624;27;20857;-65
2023/06/22 08:08:54;;;;;;;19.00;11.83;;;26.50;91.90;;;;;;5132765;27;20977;-65
2023/06/22 08:11:23;;;;;;;14.27;11.67;;;26.50;93.30;;;;;;5133161;27;20480;-65
2023/06/22 08:13:50;;;;;;;16.17;11.60;;;26.80;93.90;;;;;;5132726;27;20484;-66
2023/06/22 08:16:17;;;;;;;15.37;11.80;;;27.00;92.60;;;;;;5132758;27;20456;-65
2023/06/22 08:18:45;;;;;;;11.80;9.20;;;26.80;90.80;;;;;;5132315;27;20463;-66
2023/06/22 08:21:12;;;;;;;13.57;9.73;;;26.90;90.80;;;;;;5133030;27;20448;-66
2023/06/22 08:23:39;;;;;;;15.27;10.10;;;27.30;87.40;;;;;;5132076;27;20565;-66
2023/06/22 08:26:06;;;;;;;14.20;10.70;;;27.60;86.60;;;;;;5132793;27;20456;-65
2023/06/22 08:28:33;;;;;;;12.60;9.50;;;28.00;86.40;;;;;;5132501;27;20450;-66
2023/06/22 08:31:01;;;;;;;11.73;9.37;;;27.90;78.80;;;;;;5132558;27;20429;-66
2023/06/22 08:33:30;;;;;;;11.77;9.77;;;28.10;76.80;;;;;;5132324;27;20451;-66
2023/06/22 08:35:59;;;;;;;13.67;9.30;;;28.00;78.70;;;;;;5132839;27;20450;-66
2023/06/22 08:38:26;;;;;;;12.10;9.10;;;28.20;76.90;;;;;;5132031;27;21396;-66
2023/06/22 08:40:53;;;;;;;13.23;9.50;;;28.50;73.90;;;;;;5132728;27;20454;-66
2023/06/22 08:43:20;;;;;;;14.20;9.50;;;28.90;73.20;;;;;;5132176;27;20459;-66
2023/06/22 08:45:46;;;;;;;11.83;7.70;;;28.90;69.10;;;;;;5131652;27;20478;-66
2023/06/22 08:48:13;;;;;;;11.93;7.63;;;29.10;66.00;;;;;;5132107;27;20466;-66
2023/06/22 08:50:41;;;;;;;10.83;8.27;;;28.80;63.90;;;;;;5131586;27;20455;-66
2023/06/22 08:53:09;;;;;;;9.73;6.93;;;29.00;64.50;;;;;;5132502;27;20455;-66
2023/06/22 08:55:36;;;;;;;10.33;7.33;;;28.70;62.90;;;;;;5131517;27;20478;-66
2023/06/22 08:58:03;;;;;;;13.00;7.97;;;28.20;67.00;;;;;;5132181;27;20452;-66
2023/06/22 09:00:34;;;;;;;12.37;8.10;;;28.60;68.90;;;;;;5131645;27;21016;-66
2023/06/22 09:03:01;;;;;;;9.90;7.23;;;28.90;65.40;;;;;;5131871;27;20455;-66
2023/06/22 09:05:28;;;;;;;13.80;7.23;;;28.40;64.60;;;;;;5130926;27;20486;-66
2023/06/22 09:07:55;;;;;;;12.70;8.07;;;28.10;63.00;;;;;;5133255;28;20635;-66
2023/06/22 09:10:24;;;;;;;14.17;8.57;;;28.10;66.50;;;;;;5133043;27;20448;-66
2023/06/22 09:12:50;;;;;;;13.23;6.90;;;28.30;65.00;;;;;;5132559;27;20820;-66
2023/06/22 09:15:18;;;;;;;11.53;8.23;;;28.70;67.10;;;;;;5132590;28;20457;-66
2023/06/22 09:17:46;;;;;;;11.40;7.47;;;29.40;61.00;;;;;;5133160;28;20509;-66
2023/06/22 09:20:13;;;;;;;12.33;8.07;;;29.70;57.10;;;;;;5132920;27;20459;-66
2023/06/22 09:22:40;;;;;;;10.87;7.73;;;30.00;54.50;;;;;;5133154;27;20451;-66
2023/06/22 09:25:07;;;;;;;13.93;7.10;;;29.60;54.00;;;;;;5132414;28;20478;-66
2023/06/22 09:27:35;;;;;;;11.60;7.30;;;30.10;52.70;;;;;;5132817;28;20456;-66
2023/06/22 09:30:03;;;;;;;10.73;7.50;;;30.10;53.50;;;;;;5132881;27;20477;-66
2023/06/22 09:32:30;;;;;;;10.83;6.90;;;30.20;50.20;;;;;;5133037;27;20890;-66
2023/06/22 09:34:57;;;;;;;10.90;7.50;;;29.80;46.00;;;;;;5132450;28;20450;-66
2023/06/22 09:37:24;;;;;;;10.80;7.97;;;30.60;46.70;;;;;;5132912;27;20448;-66
2023/06/22 09:39:51;;;;;;;12.13;6.53;;;30.90;44.20;;;;;;5132724;27;20426;-66
2023/06/22 09:42:17;;;;;;;9.30;7.23;;;30.40;37.70;;;;;;5132680;27;20555;-66
2023/06/22 09:44:46;;;;;;;10.50;6.60;;;30.80;44.10;;;;;;5132347;28;20538;-66
2023/06/22 09:47:12;;;;;;;9.83;6.07;;;30.80;41.10;;;;;;5132784;28;20801;-66
2023/06/22 09:49:39;;;;;;;10.07;7.00;;;30.00;39.10;;;;;;5132508;27;20452;-66
2023/06/22 09:52:07;;;;;;;10.27;7.10;;;30.90;41.20;;;;;;5132832;27;20447;-66
2023/06/22 09:54:34;;;;;;;9.83;6.93;;;31.30;35.30;;;;;;5131814;27;20426;-66
2023/06/22 09:57:01;;;;;;;12.30;7.50;;;30.90;32.50;;;;;;5132903;28;20463;-66
2023/06/22 09:59:27;;;;;;;8.97;6.10;;;31.00;35.00;;;;;;5132639;28;20458;-66
2023/06/22 10:01:56;;;;;;;8.80;6.13;;;30.90;34.90;;;;;;5133388;27;20426;-66
2023/06/22 10:04:24;;;;;;;11.53;6.30;;;30.50;34.60;;;;;;5135776;27;20450;-66
2023/06/22 10:06:51;;;;;;;12.23;8.33;;;30.10;34.30;;;;;;5136424;27;20862;-66
2023/06/22 10:09:18;;;;;;;9.87;7.03;;;29.70;35.50;;;;;;5135171;27;20971;-66
2023/06/22 10:11:45;;;;;;;11.40;6.80;;;29.10;37.40;;;;;;5134933;27;20550;-66
2023/06/22 10:14:11;;;;;;;14.00;6.50;;;28.90;42.80;;;;;;5135703;27;20950;-66
2023/06/22 10:16:38;;;;;;;10.33;7.20;;;28.60;40.90;;;;;;5136313;27;20431;-65
2023/06/22 10:19:06;;;;;;;10.40;6.67;;;28.10;39.90;;;;;;5135848;27;20449;-65
2023/06/22 10:21:34;;;;;;;9.53;6.90;;;27.80;41.90;;;;;;5135891;27;20448;-64
2023/06/22 10:24:05;;;;;;;9.63;7.23;;;27.60;44.40;;;;;;5135592;27;20422;-64
2023/06/22 10:26:32;;;;;;;11.53;6.50;;;27.40;49.70;;;;;;5136906;27;20407;-64
2023/06/22 10:28:59;;;;;;;11.10;7.10;;;27.20;41.50;;;;;;5137638;27;20447;-64
2023/06/22 10:31:27;;;;;;;9.53;6.70;;;27.20;58.40;;;;;;5137293;27;21026;-60
2023/06/22 10:33:54;;;;;;;12.43;7.70;;;26.60;97.70;;;;;;5137518;27;20467;-60
2023/06/22 10:36:23;;;;;;;11.53;7.80;;;25.60;99.90;;;;;;5136583;27;20448;-60
2023/06/22 10:38:50;;;;;;;15.73;10.73;;;25.30;99.90;;;;;;5136098;27;20911;-60
2023/06/22 10:41:17;;;;;;;17.53;8.80;;;24.70;99.90;;;;;;5136229;27;20488;-60
2023/06/22 10:43:44;;;;;;;16.10;12.37;;;24.00;99.90;;;;;;5135935;27;20452;-60
2023/06/22 10:46:11;;;;;;;125.70;120.63;;;23.50;99.90;;;;;;5135767;27;20478;-61
2023/06/22 10:48:38;;;;;;;131.47;125.87;;;23.10;99.90;;;;;;5167775;22;20465;-61
2023/06/22 10:51:05;;;;;;;166.87;160.63;;;22.70;99.90;;;;;;5093022;28;20445;-62
2023/06/22 10:53:33;;;;;;;341.70;328.97;;;22.40;99.90;;;;;;5094136;28;20460;-60
2023/06/22 10:56:00;;;;;;;501.40;480.03;;;22.20;99.90;;;;;;5096259;28;20446;-60
2023/06/22 10:58:27;;;;;;;731.07;690.83;;;22.10;99.90;;;;;;5095064;28;20540;-60
2023/06/22 11:00:54;;;;;;;748.63;705.13;;;22.00;99.90;;;;;;5085727;28;20442;-60
2023/06/22 11:03:21;;;;;;;715.53;677.10;;;21.80;99.90;;;;;;5074293;28;20525;-59
2023/06/22 11:05:48;;;;;;;791.47;748.10;;;21.70;99.90;;;;;;5075709;28;20532;-60
2023/06/22 11:08:15;;;;;;;868.50;817.13;;;21.50;99.90;;;;;;5074684;28;20447;-59
2023/06/22 11:10:44;;;;;;;896.50;838.17;;;21.40;99.90;;;;;;5073506;28;20458;-59
2023/06/22 11:13:11;;;;;;;890.27;829.13;;;21.30;99.90;;;;;;5074088;28;20537;-59
2023/06/22 11:15:39;;;;;;;902.70;842.43;;;21.30;99.90;;;;;;5074872;28;20447;-59
2023/06/22 11:18:07;;;;;;;938.93;874.40;;;21.10;99.90;;;;;;5074741;28;20450;-59
2023/06/22 11:20:38;;;;;;;898.07;830.57;;;21.10;99.90;;;;;;5073774;28;20465;-59
2023/06/22 11:23:05;;;;;;;938.50;866.63;;;21.10;99.90;;;;;;5074211;28;20434;-60
2023/06/22 11:25:32;;;;;;;951.50;874.70;;;21.10;99.90;;;;;;5075325;28;20834;-59
2023/06/22 11:28:00;;;;;;;903.87;827.73;;;21.10;99.90;;;;;;5074526;28;20446;-59
2023/06/22 11:30:27;;;;;;;879.57;808.87;;;21.10;99.90;;;;;;5071822;28;20458;-59
2023/06/22 11:32:54;;;;;;;907.23;842.53;;;21.00;99.90;;;;;;5073299;28;20455;-60
2023/06/22 11:35:21;;;;;;;896.03;827.80;;;21.00;99.90;;;;;;5075232;28;20446;-60
2023/06/22 11:37:48;;;;;;;912.60;838.60;;;21.00;99.90;;;;;;5074404;28;20516;-59
2023/06/22 11:40:15;;;;;;;884.03;806.93;;;21.20;99.90;;;;;;5072910;28;20454;-59
2023/06/22 11:42:42;;;;;;;892.90;813.23;;;21.30;99.90;;;;;;5089564;28;20960;-60
2023/06/22 11:45:11;;;;;;;931.60;854.47;;;21.40;99.90;;;;;;5095139;28;20470;-60
2023/06/22 11:47:39;;;;;;;964.73;886.70;;;21.40;99.90;;;;;;5094603;28;20540;-60
2023/06/22 11:50:07;;;;;;;1059.50;976.90;;;21.70;99.90;;;;;;5093268;28;20458;-60
2023/06/22 11:52:35;;;;;;;1059.23;980.37;;;22.00;99.90;;;;;;5093109;28;20820;-60
2023/06/22 11:55:03;;;;;;;917.80;857.00;;;22.40;99.90;;;;;;5094705;28;20924;-59
2023/06/22 11:57:30;;;;;;;954.47;890.90;;;22.40;99.90;;;;;;5094795;28;20450;-60
2023/06/22 11:59:57;;;;;;;821.63;771.23;;;22.70;99.90;;;;;;5092518;28;20449;-59
2023/06/22 12:02:25;;;;;;;783.77;741.23;;;22.80;99.90;;;;;;5092410;28;20445;-59
2023/06/22 12:04:54;;;;;;;713.73;684.43;;;22.70;99.90;;;;;;5094605;28;20568;-60
2023/06/22 12:07:21;;;;;;;796.67;752.67;;;22.60;99.90;;;;;;5094759;28;20461;-60
2023/06/22 12:09:48;;;;;;;820.17;773.37;;;22.90;99.90;;;;;;5092037;28;20457;-60
2023/06/22 12:12:15;;;;;;;825.93;780.47;;;23.00;99.90;;;;;;5092568;28;20458;-60
2023/06/22 12:14:42;;;;;;;801.00;760.40;;;22.90;99.90;;;;;;5094280;28;20450;-60
2023/06/22 12:17:09;;;;;;;827.37;773.00;;;22.60;99.90;;;;;;5094304;28;20492;-60
2023/06/22 12:19:37;;;;;;;811.93;763.87;;;22.70;99.90;;;;;;5092718;28;20515;-60
2023/06/22 12:22:04;;;;;;;824.43;766.57;;;22.70;99.90;;;;;;5092245;28;20948;-59
2023/06/22 12:24:31;;;;;;;836.30;774.73;;;23.20;99.90;;;;;;5094148;28;20518;-59
2023/06/22 12:26:58;;;;;;;836.50;776.80;;;23.70;99.90;;;;;;5093528;28;20560;-59
2023/06/22 12:29:25;;;;;;;814.47;766.60;;;24.20;99.90;;;;;;5092115;28;20541;-59
2023/06/22 12:31:52;;;;;;;790.03;750.83;;;24.80;99.90;;;;;;5092101;28;20476;-60